Time;durP1;ratioP1;P1;durP2;ratioP2;P2;SDS_P1;SDS_P2;PMS_P1;PMS_P2;Temp;Humidity;BMP_temperature;BMP_pressure;BME280_temperature;BME280_humidity;BME280_pressure;Samples;Min_cycle;Max_cycle;Signal;HPM_P1;HPM_P2
2022/06/25 00:00:27;;;;;;;3.43;2.17;;;25.40;85.10;;;;;;6211361;23;20404;-70
2022/06/25 00:02:52;;;;;;;3.40;1.97;;;25.40;85.10;;;;;;6161379;23;20137;-70
2022/06/25 00:05:28;;;;;;;2.23;2.03;;;25.40;85.10;;;;;;6186590;23;20365;-70
2022/06/25 00:07:58;;;;;;;4.07;2.50;;;25.30;85.10;;;;;;6162067;23;20904;-70
2022/06/25 00:10:25;;;;;;;2.53;2.33;;;25.30;85.10;;;;;;6161818;23;20751;-70
2022/06/25 00:12:51;;;;;;;4.50;2.13;;;25.30;85.20;;;;;;6161721;23;20402;-70
2022/06/25 00:15:20;;;;;;;2.50;1.90;;;25.30;85.20;;;;;;6212209;23;20380;-70
2022/06/25 00:17:47;;;;;;;2.00;1.90;;;25.30;85.30;;;;;;6212820;23;20479;-70
2022/06/25 00:20:13;;;;;;;2.30;2.10;;;25.20;85.20;;;;;;6212474;23;20377;-70
2022/06/25 00:22:41;;;;;;;2.47;2.10;;;25.20;85.20;;;;;;6211076;23;20407;-70
2022/06/25 00:25:07;;;;;;;2.40;2.07;;;25.20;85.20;;;;;;6212146;23;20445;-69
2022/06/25 00:27:33;;;;;;;2.53;2.00;;;25.20;85.30;;;;;;6212569;23;20442;-69
2022/06/25 00:30:05;;;;;;;2.00;1.80;;;25.20;85.30;;;;;;6212463;23;20363;-70
2022/06/25 00:32:34;;;;;;;1.73;1.63;;;25.20;85.30;;;;;;6186538;23;20473;-70
2022/06/25 00:35:03;;;;;;;2.20;2.00;;;25.20;85.40;;;;;;6186613;23;20418;-70
2022/06/25 00:37:30;;;;;;;2.67;2.30;;;25.20;85.50;;;;;;6211507;23;20395;-70
2022/06/25 00:39:56;;;;;;;2.00;1.80;;;25.20;85.50;;;;;;6161563;23;20376;-69
2022/06/25 00:42:30;;;;;;;2.50;1.97;;;25.20;85.50;;;;;;6161841;23;20717;-70
2022/06/25 00:44:58;;;;;;;2.20;2.00;;;25.10;85.40;;;;;;6212996;23;20360;-70
2022/06/25 00:47:24;;;;;;;2.50;2.10;;;25.10;85.50;;;;;;6187436;23;20399;-70
2022/06/25 00:49:51;;;;;;;1.87;1.60;;;25.10;85.50;;;;;;6187947;23;20368;-69
2022/06/25 00:52:18;;;;;;;2.57;2.37;;;25.10;86.30;;;;;;6214795;23;20359;-70
2022/06/25 00:54:58;;;;;;;2.23;2.03;;;25.10;85.60;;;;;;6188254;23;20720;-70
2022/06/25 00:57:33;;;;;;;2.57;1.97;;;25.00;85.40;;;;;;6214680;23;20395;-70
2022/06/25 01:00:07;;;;;;;2.67;2.07;;;25.00;85.50;;;;;;6188682;23;20363;-70
2022/06/25 01:02:36;;;;;;;1.70;1.60;;;25.00;85.50;;;;;;6187959;23;20744;-70
2022/06/25 01:05:07;;;;;;;2.53;2.00;;;25.00;85.50;;;;;;6188531;23;20383;-70
2022/06/25 01:07:35;;;;;;;2.07;1.70;;;25.00;85.50;;;;;;6187795;23;20417;-70
2022/06/25 01:10:02;;;;;;;2.20;1.87;;;25.00;85.60;;;;;;6188296;23;20812;-70
2022/06/25 01:12:28;;;;;;;2.10;1.73;;;25.00;85.70;;;;;;6214902;23;20376;-69
2022/06/25 01:15:08;;;;;;;3.17;1.80;;;24.90;85.50;;;;;;6188829;23;20399;-70
2022/06/25 01:17:38;;;;;;;2.57;2.00;;;24.90;85.50;;;;;;6186351;23;20744;-70
2022/06/25 01:20:05;;;;;;;2.73;1.80;;;24.90;85.50;;;;;;6188001;23;20403;-70
2022/06/25 01:22:35;;;;;;;2.27;1.90;;;24.90;85.60;;;;;;6163317;23;20379;-70
2022/06/25 01:25:07;;;;;;;1.80;1.70;;;24.90;85.60;;;;;;6212979;23;20359;-70
2022/06/25 01:27:36;;;;;;;2.00;1.80;;;24.90;85.60;;;;;;6138511;23;20874;-70
2022/06/25 01:30:03;;;;;;;2.30;1.80;;;24.90;85.70;;;;;;6188163;23;20394;-70
2022/06/25 01:32:30;;;;;;;2.30;1.83;;;24.80;85.60;;;;;;6162819;23;20380;-70
2022/06/25 01:34:58;;;;;;;2.43;1.50;;;24.80;85.60;;;;;;6214666;23;20376;-69
2022/06/25 01:37:32;;;;;;;2.67;1.90;;;24.80;85.70;;;;;;6188937;23;20482;-70
2022/06/25 01:40:03;;;;;;;1.90;1.70;;;24.80;85.70;;;;;;6188427;23;20733;-69
2022/06/25 01:45:16;;;;;;;2.80;2.10;;;24.80;85.70;;;;;;6163132;23;20403;-69
2022/06/25 01:47:47;;;;;;;1.80;1.70;;;24.70;85.60;;;;;;6187580;23;20424;-70
2022/06/25 01:50:16;;;;;;;1.77;1.67;;;24.70;85.60;;;;;;6212502;23;20155;-70
2022/06/25 01:52:46;;;;;;;2.40;1.87;;;24.70;85.60;;;;;;6163070;23;20419;-70
2022/06/25 01:55:15;;;;;;;1.77;1.67;;;24.70;85.60;;;;;;6188275;23;20383;-70
2022/06/25 01:57:45;;;;;;;2.10;1.33;;;24.70;85.60;;;;;;6162663;23;20419;-70
2022/06/25 02:00:22;;;;;;;2.23;2.00;;;24.60;86.00;;;;;;6212936;23;20367;-69
2022/06/25 02:02:56;;;;;;;1.70;1.60;;;24.70;85.60;;;;;;6212622;23;20442;-70
2022/06/25 02:08:13;;;;;;;2.43;1.77;;;24.70;85.80;;;;;;6187415;23;20719;-70
2022/06/25 02:10:40;;;;;;;4.10;1.80;;;24.60;85.70;;;;;;6187770;23;20378;-70
2022/06/25 02:13:08;;;;;;;2.60;2.03;;;24.60;85.70;;;;;;6162768;23;20360;-70
2022/06/25 02:15:40;;;;;;;1.87;1.77;;;24.60;85.70;;;;;;6212908;23;20442;-70
2022/06/25 02:18:08;;;;;;;1.73;1.63;;;24.50;85.60;;;;;;6186905;23;20430;-70
2022/06/25 02:20:34;;;;;;;2.00;1.80;;;24.60;85.80;;;;;;6187593;23;20838;-70
2022/06/25 02:23:03;;;;;;;1.70;1.57;;;24.50;85.70;;;;;;6187718;23;20366;-70
2022/06/25 02:25:31;;;;;;;3.77;1.90;;;24.50;85.70;;;;;;6163154;23;20383;-70
2022/06/25 02:28:01;;;;;;;2.17;1.87;;;24.50;85.70;;;;;;6187416;23;20949;-70
2022/06/25 02:30:32;;;;;;;2.00;1.80;;;24.50;85.70;;;;;;6188069;23;20372;-70
2022/06/25 02:33:01;;;;;;;3.23;1.80;;;24.50;85.70;;;;;;6212328;23;20413;-70
2022/06/25 02:35:27;;;;;;;2.60;2.00;;;24.40;85.70;;;;;;6212806;23;20400;-70
2022/06/25 02:37:55;;;;;;;1.67;1.57;;;24.50;85.80;;;;;;6212156;23;20782;-70
2022/06/25 02:40:26;;;;;;;2.43;1.70;;;24.40;85.70;;;;;;6163364;23;20396;-70
2022/06/25 02:42:52;;;;;;;2.43;1.80;;;24.40;85.70;;;;;;6187255;23;20374;-70
2022/06/25 02:45:20;;;;;;;2.10;1.63;;;24.40;85.80;;;;;;6162323;23;20716;-70
2022/06/25 02:47:51;;;;;;;1.87;1.77;;;24.40;85.80;;;;;;6186671;23;20461;-70
2022/06/25 02:50:22;;;;;;;2.10;2.00;;;24.40;85.70;;;;;;6162610;23;20705;-70
2022/06/25 02:52:56;;;;;;;2.10;2.00;;;24.40;85.80;;;;;;6187966;23;20922;-70
2022/06/25 03:01:00;;;;;;;2.03;1.80;;;24.30;85.90;;;;;;6187346;23;20406;-70
2022/06/25 03:03:31;;;;;;;1.80;1.70;;;24.30;85.90;;;;;;6162157;23;20402;-70
2022/06/25 03:05:57;;;;;;;2.40;1.63;;;24.30;86.00;;;;;;6162275;23;20502;-70
2022/06/25 03:08:27;;;;;;;2.67;2.10;;;24.30;86.00;;;;;;6138611;23;20407;-70
2022/06/25 03:10:53;;;;;;;3.10;2.37;;;24.30;86.10;;;;;;6186678;23;20471;-70
2022/06/25 03:13:22;;;;;;;3.77;1.90;;;24.30;86.10;;;;;;6162062;23;20398;-70
2022/06/25 03:15:48;;;;;;;2.33;1.80;;;24.20;86.00;;;;;;6212387;23;20369;-70
2022/06/25 03:18:14;;;;;;;2.83;2.20;;;24.20;86.00;;;;;;6162160;23;20925;-70
2022/06/25 03:20:40;;;;;;;2.43;2.23;;;24.20;86.00;;;;;;6186726;23;20414;-70
2022/06/25 03:23:08;;;;;;;2.40;1.80;;;24.20;86.00;;;;;;6162837;23;20390;-70
2022/06/25 03:25:34;;;;;;;3.00;2.30;;;24.20;86.10;;;;;;6137857;23;20470;-70
2022/06/25 03:28:04;;;;;;;2.70;2.30;;;24.10;86.00;;;;;;6162798;23;20714;-69
2022/06/25 03:30:33;;;;;;;4.20;1.90;;;24.10;86.10;;;;;;6187175;23;20561;-70
2022/06/25 03:32:59;;;;;;;2.33;2.13;;;24.10;86.10;;;;;;6186885;23;20387;-69
2022/06/25 03:35:49;;;;;;;2.23;1.80;;;24.10;86.10;;;;;;6186588;23;20403;-70
2022/06/25 03:38:18;;;;;;;3.13;2.13;;;24.10;86.20;;;;;;6161976;23;20964;-70
2022/06/25 03:40:47;;;;;;;3.93;1.90;;;24.10;86.20;;;;;;6162165;23;20854;-70
2022/06/25 03:43:16;;;;;;;2.20;2.00;;;24.10;86.30;;;;;;6187139;23;20359;-69
2022/06/25 03:45:45;;;;;;;2.90;1.83;;;24.10;86.40;;;;;;6213446;23;20386;-70
2022/06/25 03:48:11;;;;;;;1.83;1.73;;;24.10;86.40;;;;;;6161761;23;20411;-70
2022/06/25 03:51:10;;;;;;;2.10;1.90;;;24.10;86.50;;;;;;6186580;23;20446;-69
2022/06/25 03:53:41;;;;;;;3.50;2.30;;;24.00;86.40;;;;;;6188217;23;20564;-70
2022/06/25 03:56:08;;;;;;;2.47;2.07;;;24.00;86.50;;;;;;6213167;23;20398;-70
2022/06/25 03:58:40;;;;;;;2.57;2.37;;;24.00;86.60;;;;;;6186866;23;20453;-70
2022/06/25 04:01:08;;;;;;;2.10;1.93;;;24.00;86.60;;;;;;6161946;23;20426;-70
2022/06/25 04:03:36;;;;;;;3.47;2.10;;;24.00;86.60;;;;;;6162647;23;20454;-70
2022/06/25 04:06:08;;;;;;;3.30;2.60;;;24.00;86.70;;;;;;6161847;23;20745;-70
2022/06/25 04:08:43;;;;;;;2.80;2.00;;;24.00;86.70;;;;;;6186567;23;20403;-70
2022/06/25 04:11:15;;;;;;;3.53;2.17;;;23.90;86.70;;;;;;6188283;23;20375;-70
2022/06/25 04:13:44;;;;;;;2.53;2.33;;;23.90;86.80;;;;;;6187007;23;20425;-69
2022/06/25 04:16:13;;;;;;;2.20;2.00;;;23.90;86.80;;;;;;6187085;23;20849;-70
2022/06/25 04:18:39;;;;;;;3.90;2.50;;;23.90;86.80;;;;;;6161301;23;20465;-70
2022/06/25 04:21:09;;;;;;;5.77;2.20;;;23.90;86.80;;;;;;6162553;23;20383;-70
2022/06/25 04:23:39;;;;;;;3.57;2.20;;;23.90;86.80;;;;;;6163902;23;20402;-70
2022/06/25 04:26:09;;;;;;;2.93;2.20;;;23.90;86.90;;;;;;6164044;23;20402;-70
2022/06/25 04:31:33;;;;;;;2.80;2.30;;;23.80;86.90;;;;;;6164175;23;20781;-70
2022/06/25 04:34:02;;;;;;;2.83;2.00;;;23.80;86.90;;;;;;6188763;23;20395;-70
2022/06/25 04:36:29;;;;;;;1.90;1.80;;;23.80;86.90;;;;;;6188984;23;20740;-70
2022/06/25 04:39:01;;;;;;;2.47;2.27;;;23.80;87.00;;;;;;6188587;23;20520;-70
2022/06/25 04:41:32;;;;;;;1.70;1.60;;;23.80;87.10;;;;;;6139672;23;20410;-70
2022/06/25 04:44:06;;;;;;;3.30;2.17;;;23.80;87.10;;;;;;6163658;23;20769;-70
2022/06/25 04:46:34;;;;;;;2.30;2.10;;;23.80;87.20;;;;;;6188686;23;20740;-70
2022/06/25 04:49:01;;;;;;;2.27;2.07;;;23.80;87.30;;;;;;6213198;23;20426;-70
2022/06/25 04:51:30;;;;;;;2.07;1.93;;;23.70;87.20;;;;;;6140407;23;20446;-70
2022/06/25 04:53:57;;;;;;;2.63;2.23;;;23.70;87.20;;;;;;6188966;23;20356;-70
2022/06/25 04:56:40;;;;;;;4.93;2.10;;;23.70;87.30;;;;;;6188179;23;20887;-70
2022/06/25 04:59:12;;;;;;;5.57;2.37;;;23.70;87.30;;;;;;6213761;23;20991;-70
2022/06/25 05:01:51;;;;;;;2.50;2.30;;;23.70;87.40;;;;;;6213903;23;20456;-70
2022/06/25 05:04:22;;;;;;;2.83;2.50;;;23.70;87.30;;;;;;6164038;23;20469;-70
2022/06/25 05:06:48;;;;;;;3.10;2.23;;;23.70;87.50;;;;;;6163396;23;20472;-70
2022/06/25 05:09:18;;;;;;;2.40;2.20;;;23.70;87.50;;;;;;6188949;23;20474;-70
2022/06/25 05:11:52;;;;;;;2.53;2.33;;;23.70;87.60;;;;;;6188276;23;20403;-70
2022/06/25 05:14:22;;;;;;;2.57;2.37;;;23.70;87.60;;;;;;6164825;23;20371;-70
2022/06/25 05:16:48;;;;;;;3.70;1.83;;;23.60;87.60;;;;;;6215162;23;20909;-70
2022/06/25 05:19:15;;;;;;;2.30;2.07;;;23.70;87.80;;;;;;6214414;23;20757;-70
2022/06/25 05:21:41;;;;;;;1.93;1.80;;;23.60;87.70;;;;;;6188154;23;20894;-70
2022/06/25 05:24:16;;;;;;;3.40;2.30;;;23.60;87.70;;;;;;6188467;23;20360;-70
2022/06/25 05:26:44;;;;;;;2.80;2.27;;;23.60;87.70;;;;;;6188307;23;20406;-70
2022/06/25 05:29:10;;;;;;;2.37;2.17;;;23.60;87.80;;;;;;6214526;23;20399;-70
2022/06/25 05:31:36;;;;;;;2.83;2.27;;;23.60;87.70;;;;;;6163037;23;20741;-70
2022/06/25 05:34:07;;;;;;;2.37;2.20;;;23.60;87.70;;;;;;6162447;23;20211;-69
2022/06/25 05:36:33;;;;;;;2.60;2.40;;;23.60;87.80;;;;;;6163241;23;20423;-70
2022/06/25 05:39:02;;;;;;;1.93;1.80;;;23.60;87.80;;;;;;6188584;23;20427;-70
2022/06/25 05:41:30;;;;;;;2.40;2.20;;;23.60;87.80;;;;;;6213072;23;20403;-70
2022/06/25 05:43:58;;;;;;;2.43;2.20;;;23.50;87.80;;;;;;6213261;23;20503;-70
2022/06/25 05:46:29;;;;;;;2.80;2.40;;;23.60;87.90;;;;;;6214137;23;20360;-70
2022/06/25 05:48:57;;;;;;;2.97;2.30;;;23.50;88.00;;;;;;6187612;23;20407;-70
2022/06/25 05:51:23;;;;;;;2.37;2.10;;;23.50;88.10;;;;;;6214654;23;20387;-70
2022/06/25 05:53:49;;;;;;;2.40;2.20;;;23.50;88.10;;;;;;6188181;23;20377;-70
2022/06/25 05:56:17;;;;;;;2.87;1.97;;;23.50;88.10;;;;;;6213159;23;20407;-70
2022/06/25 05:58:48;;;;;;;2.80;2.30;;;23.50;88.20;;;;;;6162708;23;20191;-70
2022/06/25 06:01:16;;;;;;;2.27;1.93;;;23.50;88.30;;;;;;6187849;23;20542;-69
2022/06/25 06:03:42;;;;;;;2.27;1.77;;;23.50;88.30;;;;;;6163054;23;20380;-70
2022/06/25 06:06:11;;;;;;;2.87;2.57;;;23.50;88.30;;;;;;6212743;23;20467;-71
2022/06/25 06:08:37;;;;;;;3.77;1.93;;;23.50;88.20;;;;;;6213887;23;20391;-71
2022/06/25 06:11:07;;;;;;;2.13;1.93;;;23.50;88.30;;;;;;6214381;23;20368;-70
2022/06/25 06:13:36;;;;;;;5.37;2.50;;;23.40;88.20;;;;;;6187981;23;20372;-71
2022/06/25 06:16:05;;;;;;;2.40;2.20;;;23.50;88.50;;;;;;6213109;23;20356;-70
2022/06/25 06:18:33;;;;;;;2.33;2.10;;;23.40;88.40;;;;;;6209442;23;20439;-70
2022/06/25 06:21:01;;;;;;;2.93;2.20;;;23.40;88.40;;;;;;6211518;23;20367;-70
2022/06/25 06:23:27;;;;;;;1.70;1.60;;;23.40;88.40;;;;;;6211560;23;21133;-70
2022/06/25 06:25:53;;;;;;;5.07;2.47;;;23.40;88.40;;;;;;6211379;23;20737;-70
2022/06/25 06:28:19;;;;;;;2.63;2.43;;;23.40;88.60;;;;;;6159342;23;20411;-70
2022/06/25 06:30:48;;;;;;;2.40;2.20;;;23.40;88.60;;;;;;6184813;23;20747;-70
2022/06/25 06:33:17;;;;;;;4.70;2.47;;;23.40;88.70;;;;;;6160051;23;20411;-70
2022/06/25 06:35:43;;;;;;;2.30;2.20;;;23.40;88.70;;;;;;6212026;23;20858;-70
2022/06/25 06:38:11;;;;;;;3.83;2.50;;;23.40;88.60;;;;;;6209201;23;20806;-70
2022/06/25 06:40:42;;;;;;;2.80;2.60;;;23.40;88.50;;;;;;6210941;23;20379;-70
2022/06/25 06:43:10;;;;;;;2.80;2.40;;;23.40;88.40;;;;;;6159722;23;20751;-70
2022/06/25 06:45:36;;;;;;;2.90;2.33;;;23.40;88.40;;;;;;6209489;23;20360;-70
2022/06/25 06:48:03;;;;;;;2.00;1.90;;;23.40;88.40;;;;;;6209686;23;20429;-70
2022/06/25 06:50:28;;;;;;;3.20;2.07;;;23.40;88.30;;;;;;6210277;23;20375;-70
2022/06/25 06:52:57;;;;;;;2.63;2.00;;;23.40;88.30;;;;;;6210625;23;20363;-70
2022/06/25 06:55:27;;;;;;;5.40;2.47;;;23.40;88.20;;;;;;6209444;23;20378;-70
2022/06/25 06:57:53;;;;;;;2.53;2.33;;;23.40;88.20;;;;;;6209313;23;20477;-70
2022/06/25 07:00:24;;;;;;;2.37;2.17;;;23.40;88.10;;;;;;6210048;23;20403;-70
2022/06/25 07:02:50;;;;;;;2.60;2.23;;;23.40;87.90;;;;;;6210943;23;20838;-70
2022/06/25 07:05:16;;;;;;;2.87;2.10;;;23.40;87.60;;;;;;6184393;23;20382;-70
2022/06/25 07:07:42;;;;;;;3.20;2.20;;;23.40;87.50;;;;;;6209246;23;20215;-69
2022/06/25 07:10:08;;;;;;;2.57;2.37;;;23.40;87.40;;;;;;6210467;23;21143;-70
2022/06/25 07:12:36;;;;;;;2.57;2.30;;;23.40;87.50;;;;;;6205701;23;20395;-70
2022/06/25 07:15:02;;;;;;;4.20;2.40;;;23.40;87.40;;;;;;6209675;23;20871;-70
2022/06/25 07:17:31;;;;;;;2.83;2.20;;;23.40;87.30;;;;;;6183532;23;20403;-69
2022/06/25 07:19:59;;;;;;;3.87;2.53;;;23.40;87.20;;;;;;6183276;23;20504;-70
2022/06/25 07:22:30;;;;;;;4.47;2.60;;;23.40;87.10;;;;;;6209106;23;20861;-70
2022/06/25 07:24:59;;;;;;;3.80;2.47;;;23.40;86.90;;;;;;6158667;23;20395;-70
2022/06/25 07:27:29;;;;;;;3.57;2.57;;;23.40;87.00;;;;;;6210522;23;20510;-70
2022/06/25 07:29:57;;;;;;;3.33;2.47;;;23.40;87.00;;;;;;6209514;23;20397;-70
2022/06/25 07:32:22;;;;;;;3.27;2.20;;;23.50;87.10;;;;;;6159886;23;21001;-70
2022/06/25 07:34:48;;;;;;;3.00;2.10;;;23.50;87.20;;;;;;6156737;23;20383;-71
2022/06/25 07:37:16;;;;;;;5.43;2.50;;;23.50;87.20;;;;;;6158192;23;20152;-69
2022/06/25 07:39:47;;;;;;;2.63;2.40;;;23.50;87.20;;;;;;6209437;23;20513;-69
2022/06/25 07:42:13;;;;;;;4.93;2.30;;;23.50;87.20;;;;;;6182830;23;20787;-69
2022/06/25 07:44:41;;;;;;;3.10;2.80;;;23.50;87.30;;;;;;6209526;23;20379;-70
2022/06/25 07:47:12;;;;;;;2.47;2.03;;;23.50;87.40;;;;;;6208577;23;20164;-70
2022/06/25 07:52:28;;;;;;;2.43;2.13;;;23.60;87.40;;;;;;6210970;23;20903;-70
2022/06/25 07:54:56;;;;;;;3.37;2.30;;;23.60;87.40;;;;;;6208975;23;21085;-69
2022/06/25 07:57:29;;;;;;;2.67;2.37;;;23.60;87.60;;;;;;6209986;23;20407;-69
2022/06/25 07:59:57;;;;;;;3.03;2.17;;;23.60;87.40;;;;;;6208755;23;20402;-70
2022/06/25 08:02:23;;;;;;;2.63;2.20;;;23.60;87.40;;;;;;6183554;23;20704;-70
2022/06/25 08:04:50;;;;;;;2.60;2.40;;;23.70;87.70;;;;;;6208959;23;20191;-69
2022/06/25 08:07:16;;;;;;;3.10;2.47;;;23.70;87.70;;;;;;6210584;23;20785;-69
2022/06/25 08:09:42;;;;;;;7.27;2.70;;;23.70;87.60;;;;;;6159504;23;20601;-69
2022/06/25 08:12:13;;;;;;;2.87;2.47;;;23.70;87.40;;;;;;6206410;23;20175;-69
2022/06/25 08:14:39;;;;;;;3.30;2.50;;;23.70;87.30;;;;;;6184210;23;20394;-69
2022/06/25 08:17:05;;;;;;;2.37;2.20;;;23.80;87.30;;;;;;6158379;23;20371;-69
2022/06/25 08:19:31;;;;;;;2.37;2.17;;;23.80;87.50;;;;;;6158466;23;20427;-69
2022/06/25 08:21:57;;;;;;;3.30;2.20;;;23.80;87.50;;;;;;6209955;23;20411;-69
2022/06/25 08:24:26;;;;;;;2.63;2.43;;;23.80;87.50;;;;;;6158391;23;20701;-69
2022/06/25 08:26:52;;;;;;;3.77;2.63;;;23.90;87.60;;;;;;6210338;23;20722;-69
2022/06/25 08:29:18;;;;;;;3.27;2.30;;;23.90;87.50;;;;;;6183842;23;20429;-69
2022/06/25 08:31:46;;;;;;;2.93;2.63;;;23.90;87.30;;;;;;6184285;23;20363;-69
2022/06/25 08:34:12;;;;;;;4.30;2.00;;;24.00;87.30;;;;;;6183970;23;20442;-69
2022/06/25 08:36:38;;;;;;;3.17;2.20;;;24.00;87.30;;;;;;6158386;23;20533;-69
2022/06/25 08:39:07;;;;;;;2.43;1.90;;;24.00;87.30;;;;;;6209877;23;20427;-69
2022/06/25 08:41:35;;;;;;;2.33;2.00;;;24.00;87.20;;;;;;6157590;23;20467;-69
2022/06/25 08:44:04;;;;;;;3.23;2.13;;;24.10;87.10;;;;;;6158214;23;20394;-69
2022/06/25 08:46:30;;;;;;;2.43;2.23;;;24.10;86.90;;;;;;6210233;23;20486;-69
2022/06/25 08:48:59;;;;;;;3.10;2.33;;;24.10;86.80;;;;;;6209666;23;20445;-69
2022/06/25 08:51:31;;;;;;;3.00;2.23;;;24.10;86.80;;;;;;6208491;23;20474;-68
2022/06/25 08:53:57;;;;;;;2.60;2.40;;;24.20;86.70;;;;;;6208810;23;20379;-68
2022/06/25 08:56:29;;;;;;;2.70;1.93;;;24.20;86.50;;;;;;6155664;23;21290;-68
2022/06/25 08:58:58;;;;;;;2.13;1.93;;;24.20;86.40;;;;;;6207977;23;20474;-69
2022/06/25 09:01:24;;;;;;;10.40;2.50;;;24.20;86.20;;;;;;6161810;23;20395;-69
2022/06/25 09:03:53;;;;;;;15.43;2.40;;;24.20;81.10;;;;;;6213228;23;20377;-69
2022/06/25 09:06:21;;;;;;;5.20;1.70;;;24.20;79.80;;;;;;6212974;23;20809;-69
2022/06/25 09:09:16;;;;;;;4.83;1.70;;;24.20;79.70;;;;;;6213977;23;20807;-69
2022/06/25 09:11:55;;;;;;;5.10;1.70;;;24.10;79.90;;;;;;6204497;23;20469;-69
2022/06/25 09:14:23;;;;;;;4.23;1.73;;;24.20;78.60;;;;;;6188914;23;20827;-68
2022/06/25 09:16:57;;;;;;;2.70;1.50;;;24.10;79.20;;;;;;6214746;23;20371;-68
2022/06/25 09:19:32;;;;;;;5.10;1.47;;;24.20;79.60;;;;;;6214008;23;20537;-69
2022/06/25 09:22:12;;;;;;;3.87;1.60;;;24.10;79.80;;;;;;6214646;23;20851;-69
2022/06/25 09:24:39;;;;;;;2.80;1.50;;;24.10;80.30;;;;;;6214040;23;20363;-68
2022/06/25 09:27:05;;;;;;;12.33;3.73;;;24.10;81.00;;;;;;6212554;23;20407;-69
2022/06/25 09:29:43;;;;;;;5.87;2.77;;;24.10;82.20;;;;;;6163204;23;20376;-69
2022/06/25 09:32:13;;;;;;;6.73;2.10;;;24.20;82.00;;;;;;6214736;23;20905;-69
2022/06/25 09:34:42;;;;;;;6.07;1.97;;;24.20;81.40;;;;;;6163711;23;20799;-69
2022/06/25 09:37:23;;;;;;;5.80;1.93;;;24.20;81.10;;;;;;6212815;23;20472;-69
2022/06/25 09:39:54;;;;;;;5.80;2.07;;;24.30;81.20;;;;;;6163777;23;20431;-69
2022/06/25 09:42:27;;;;;;;3.53;2.00;;;24.30;80.40;;;;;;6214893;23;20372;-69
2022/06/25 09:45:13;;;;;;;4.17;2.07;;;24.20;80.40;;;;;;6185004;23;20379;-69
2022/06/25 09:47:44;;;;;;;4.33;2.03;;;24.30;81.60;;;;;;6213302;23;20875;-70
2022/06/25 09:50:13;;;;;;;4.80;2.20;;;24.30;81.10;;;;;;6212800;23;20391;-69
2022/06/25 09:52:55;;;;;;;3.70;2.00;;;24.30;82.50;;;;;;6188343;23;20392;-69
2022/06/25 09:55:27;;;;;;;2.87;1.93;;;24.30;83.20;;;;;;6214735;23;20378;-68
2022/06/25 09:57:57;;;;;;;5.73;2.03;;;24.40;83.50;;;;;;6212765;23;20413;-67
2022/06/25 10:00:23;;;;;;;5.67;2.10;;;24.40;83.60;;;;;;6163487;23;20383;-69
2022/06/25 10:02:56;;;;;;;4.20;2.37;;;24.40;84.30;;;;;;6213985;23;20615;-69
2022/06/25 10:05:51;;;;;;;4.60;2.03;;;24.50;83.50;;;;;;6188851;23;20695;-69
2022/06/25 10:08:20;;;;;;;3.63;2.03;;;24.60;83.70;;;;;;6181512;23;20415;-69
2022/06/25 10:10:48;;;;;;;3.60;2.10;;;24.70;83.60;;;;;;6214234;23;20379;-69
2022/06/25 10:13:15;;;;;;;2.40;1.83;;;24.70;83.20;;;;;;6213949;23;20379;-68
2022/06/25 10:15:41;;;;;;;3.63;2.00;;;24.80;83.20;;;;;;6214227;23;20454;-69
2022/06/25 10:18:12;;;;;;;2.63;1.87;;;24.80;82.90;;;;;;6162239;23;20438;-70
2022/06/25 10:20:44;;;;;;;3.40;2.10;;;24.90;82.80;;;;;;6214203;23;20723;-70
2022/06/25 10:23:13;;;;;;;2.43;1.80;;;24.90;82.70;;;;;;6186836;23;20375;-68
2022/06/25 10:25:44;;;;;;;2.13;1.87;;;25.00;82.70;;;;;;6187780;23;20375;-68
2022/06/25 10:28:12;;;;;;;4.53;2.10;;;25.00;82.60;;;;;;6212825;23;20928;-68
2022/06/25 10:30:47;;;;;;;2.37;1.70;;;25.00;82.50;;;;;;6214294;23;20398;-68
2022/06/25 10:33:15;;;;;;;2.60;1.90;;;25.10;82.50;;;;;;6214167;23;20497;-68
2022/06/25 10:35:45;;;;;;;5.43;2.40;;;25.10;82.30;;;;;;6163623;23;20380;-69
2022/06/25 10:38:21;;;;;;;2.77;1.77;;;25.20;82.30;;;;;;6212804;23;20418;-68
2022/06/25 10:40:58;;;;;;;2.20;1.93;;;25.20;82.20;;;;;;6188095;23;20385;-68
2022/06/25 10:43:49;;;;;;;2.60;1.80;;;25.20;82.00;;;;;;6212641;23;20763;-68
2022/06/25 10:46:41;;;;;;;3.47;2.30;;;25.30;82.10;;;;;;6163495;23;20375;-68
2022/06/25 10:49:08;;;;;;;3.63;2.17;;;25.30;82.00;;;;;;6212562;23;20424;-68
2022/06/25 10:51:49;;;;;;;2.70;2.13;;;25.40;81.90;;;;;;6187095;23;20359;-69
2022/06/25 10:54:26;;;;;;;2.53;1.70;;;25.40;81.90;;;;;;6213323;23;20823;-68
2022/06/25 10:56:53;;;;;;;4.83;1.97;;;25.40;82.00;;;;;;6213129;23;20456;-69
2022/06/25 10:59:37;;;;;;;2.40;1.63;;;25.40;81.90;;;;;;6212896;23;20508;-69
2022/06/25 11:02:09;;;;;;;2.50;1.83;;;25.40;81.80;;;;;;6162249;23;20379;-69
2022/06/25 11:04:38;;;;;;;4.10;2.70;;;25.50;81.70;;;;;;6212364;23;20446;-69
2022/06/25 11:07:08;;;;;;;3.17;2.00;;;25.40;81.60;;;;;;6187181;23;20744;-69
2022/06/25 11:09:38;;;;;;;3.40;2.00;;;25.40;81.30;;;;;;6213477;23;20380;-69
2022/06/25 11:12:06;;;;;;;2.30;2.03;;;25.50;81.40;;;;;;6214079;23;20371;-69
2022/06/25 11:14:33;;;;;;;2.50;2.27;;;25.50;81.40;;;;;;6187404;23;20799;-68
2022/06/25 11:17:08;;;;;;;1.93;1.77;;;25.50;81.40;;;;;;6212526;23;20410;-69
2022/06/25 11:19:44;;;;;;;1.87;1.77;;;25.50;81.40;;;;;;6213531;23;20407;-68
2022/06/25 11:22:17;;;;;;;2.30;2.07;;;25.50;81.30;;;;;;6213601;23;20420;-69
2022/06/25 11:30:47;;;;;;;3.20;2.20;;;25.60;81.30;;;;;;6043735;23;20601;-69
2022/06/25 11:33:17;;;;;;;3.27;2.20;;;25.60;81.30;;;;;;6067281;23;20937;-73
2022/06/25 11:35:45;;;;;;;3.03;1.83;;;25.60;81.20;;;;;;6133522;23;20401;-69
2022/06/25 11:38:18;;;;;;;2.50;2.00;;;25.60;81.20;;;;;;6185329;23;20431;-70
2022/06/25 11:40:45;;;;;;;2.50;2.30;;;25.60;81.20;;;;;;6212231;23;20393;-70
2022/06/25 11:43:15;;;;;;;4.00;2.17;;;25.60;81.30;;;;;;6212091;23;20901;-70
2022/06/25 11:45:53;;;;;;;3.10;2.03;;;25.60;81.30;;;;;;6212150;23;20388;-70
2022/06/25 11:48:29;;;;;;;2.30;2.10;;;25.60;81.20;;;;;;6212365;23;20851;-70
2022/06/25 11:51:02;;;;;;;3.60;2.10;;;25.70;81.40;;;;;;6186382;23;20387;-70
2022/06/25 11:53:34;;;;;;;2.20;2.03;;;25.70;81.20;;;;;;6212315;23;20359;-70
2022/06/25 11:56:02;;;;;;;2.87;2.20;;;25.70;81.20;;;;;;6213090;23;20375;-70
2022/06/25 11:58:31;;;;;;;2.30;2.10;;;25.70;81.10;;;;;;6213314;23;20452;-70
2022/06/25 12:01:04;;;;;;;2.13;2.03;;;25.70;81.10;;;;;;6212238;23;20446;-68
2022/06/25 12:03:32;;;;;;;2.30;2.07;;;25.70;80.80;;;;;;6187086;23;20363;-71
2022/06/25 12:06:05;;;;;;;2.70;2.37;;;25.80;80.90;;;;;;6212718;23;20376;-70
2022/06/25 12:08:35;;;;;;;2.13;1.80;;;25.80;80.90;;;;;;6210297;23;20487;-69
2022/06/25 12:11:01;;;;;;;4.27;2.10;;;25.80;80.90;;;;;;6212295;23;20367;-70
2022/06/25 12:13:33;;;;;;;2.93;1.97;;;25.80;80.90;;;;;;6210286;23;20399;-73
2022/06/25 12:16:04;;;;;;;2.10;1.90;;;25.80;80.90;;;;;;6212194;23;20784;-76
2022/06/25 12:18:37;;;;;;;2.40;2.20;;;25.80;80.70;;;;;;6209844;23;20423;-70
2022/06/25 12:21:11;;;;;;;2.60;1.97;;;25.90;80.80;;;;;;6185515;23;20749;-70
2022/06/25 12:23:55;;;;;;;4.40;2.60;;;25.90;80.80;;;;;;6185728;23;20475;-70
2022/06/25 12:26:33;;;;;;;2.40;2.13;;;25.90;80.50;;;;;;6213093;23;20407;-70
2022/06/25 12:29:19;;;;;;;3.17;2.50;;;25.90;80.50;;;;;;6186112;23;20769;-70
2022/06/25 12:31:56;;;;;;;2.43;2.23;;;25.90;80.50;;;;;;6210767;23;20371;-70
2022/06/25 12:34:24;;;;;;;2.87;2.10;;;25.90;80.50;;;;;;6186651;23;20767;-70
2022/06/25 12:36:51;;;;;;;2.57;2.07;;;25.90;80.50;;;;;;6211140;23;20394;-69
2022/06/25 12:39:52;;;;;;;2.80;2.03;;;25.90;80.40;;;;;;6185083;23;20952;-71
2022/06/25 12:42:20;;;;;;;2.40;2.10;;;25.90;80.40;;;;;;6039372;23;20421;-69
2022/06/25 12:44:49;;;;;;;2.50;2.30;;;25.90;80.30;;;;;;6183912;23;20387;-70
2022/06/25 12:47:19;;;;;;;2.20;2.00;;;25.90;80.20;;;;;;6187282;23;20464;-70
2022/06/25 12:49:53;;;;;;;2.37;2.17;;;25.90;80.30;;;;;;6213253;23;20712;-70
2022/06/25 12:52:36;;;;;;;2.43;2.20;;;26.00;80.30;;;;;;6162028;23;20399;-71
2022/06/25 12:55:18;;;;;;;2.10;2.00;;;26.00;80.30;;;;;;6212429;23;20398;-70
2022/06/25 12:57:45;;;;;;;2.47;2.27;;;26.00;80.40;;;;;;6186409;23;20506;-70
2022/06/25 13:00:22;;;;;;;2.23;1.77;;;26.00;80.40;;;;;;6213415;23;20406;-70
2022/06/25 13:02:52;;;;;;;3.30;2.43;;;26.00;80.30;;;;;;6212719;23;20890;-70
2022/06/25 13:05:20;;;;;;;2.87;2.40;;;26.10;80.30;;;;;;6162859;23;20461;-71
2022/06/25 13:07:47;;;;;;;3.67;2.53;;;26.00;80.20;;;;;;6161513;23;20395;-71
2022/06/25 13:10:13;;;;;;;2.43;2.23;;;26.10;80.30;;;;;;6161105;23;20386;-71
2022/06/25 13:12:40;;;;;;;2.47;2.13;;;26.10;80.30;;;;;;6213786;23;20387;-71
2022/06/25 13:15:08;;;;;;;2.20;2.10;;;26.10;80.30;;;;;;6187974;23;20398;-71
2022/06/25 13:17:36;;;;;;;1.80;1.70;;;26.10;80.10;;;;;;6186471;23;20405;-70
2022/06/25 13:20:04;;;;;;;2.40;2.20;;;26.10;80.10;;;;;;6187848;23;20718;-70
2022/06/25 13:22:30;;;;;;;2.80;2.03;;;26.10;79.90;;;;;;6214019;23;20843;-70